sensor_id;sensor_type;location;lat;lon;timestamp;pressure;altitude;pressure_sealevel;temperature;humidity
74561;BME280;62979;55.720;37.606;2023-05-18T00:01:10;100269.88;;;20.64;39.17
74561;BME280;62979;55.720;37.606;2023-05-18T00:03:38;100283.94;;;20.66;39.12
74561;BME280;62979;55.720;37.606;2023-05-18T00:06:05;100278.19;;;20.58;39.58
74561;BME280;62979;55.720;37.606;2023-05-18T00:08:33;100268.50;;;20.57;39.68
74561;BME280;62979;55.720;37.606;2023-05-18T00:11:00;100256.81;;;20.43;39.63
74561;BME280;62979;55.720;37.606;2023-05-18T00:13:27;100274.75;;;20.56;39.70
74561;BME280;62979;55.720;37.606;2023-05-18T00:15:56;100268.06;;;20.48;39.96
74561;BME280;62979;55.720;37.606;2023-05-18T00:18:23;100271.13;;;20.41;40.05
74561;BME280;62979;55.720;37.606;2023-05-18T00:20:50;100271.13;;;20.41;40.03
74561;BME280;62979;55.720;37.606;2023-05-18T00:23:24;100283.38;;;20.43;40.06
74561;BME280;62979;55.720;37.606;2023-05-18T00:25:55;100272.09;;;20.40;40.15
74561;BME280;62979;55.720;37.606;2023-05-18T00:28:22;100276.88;;;20.33;40.59
74561;BME280;62979;55.720;37.606;2023-05-18T00:30:49;100270.72;;;20.33;40.15
74561;BME280;62979;55.720;37.606;2023-05-18T00:33:18;100276.88;;;20.33;40.16
74561;BME280;62979;55.720;37.606;2023-05-18T00:35:45;100272.00;;;20.25;40.46
74561;BME280;62979;55.720;37.606;2023-05-18T00:38:12;100271.47;;;20.19;40.22
74561;BME280;62979;55.720;37.606;2023-05-18T00:40:40;100277.75;;;20.18;40.18
74561;BME280;62979;55.720;37.606;2023-05-18T00:43:07;100281.06;;;20.21;40.05
74561;BME280;62979;55.720;37.606;2023-05-18T00:45:34;100276.09;;;20.15;40.45
74561;BME280;62979;55.720;37.606;2023-05-18T00:48:01;100278.00;;;20.13;40.82
74561;BME280;62979;55.720;37.606;2023-05-18T00:50:30;100278.84;;;20.14;40.59
74561;BME280;62979;55.720;37.606;2023-05-18T00:52:57;100285.28;;;20.09;40.71
74561;BME280;62979;55.720;37.606;2023-05-18T00:55:25;100281.91;;;20.06;40.80
74561;BME280;62979;55.720;37.606;2023-05-18T00:57:52;100280.53;;;19.99;40.91
74561;BME280;62979;55.720;37.606;2023-05-18T01:00:21;100275.31;;;19.97;40.74
74561;BME280;62979;55.720;37.606;2023-05-18T01:02:48;100264.25;;;19.89;41.07
74561;BME280;62979;55.720;37.606;2023-05-18T01:05:15;100279.94;;;19.94;41.09
74561;BME280;62979;55.720;37.606;2023-05-18T01:07:45;100279.06;;;19.93;41.17
74561;BME280;62979;55.720;37.606;2023-05-18T01:10:14;100282.66;;;19.92;41.31
74561;BME280;62979;55.720;37.606;2023-05-18T01:12:47;100282.03;;;19.87;41.46
74561;BME280;62979;55.720;37.606;2023-05-18T01:15:18;100283.94;;;19.85;41.51
74561;BME280;62979;55.720;37.606;2023-05-18T01:18:03;100278.66;;;19.85;41.37
74561;BME280;62979;55.720;37.606;2023-05-18T01:20:43;100274.44;;;19.81;41.58
74561;BME280;62979;55.720;37.606;2023-05-18T01:26:26;100255.69;;;19.66;41.83
74561;BME280;62979;55.720;37.606;2023-05-18T01:28:58;100268.81;;;19.70;42.04
74561;BME280;62979;55.720;37.606;2023-05-18T01:31:27;100279.38;;;19.71;42.02
74561;BME280;62979;55.720;37.606;2023-05-18T01:33:54;100277.09;;;19.63;41.95
74561;BME280;62979;55.720;37.606;2023-05-18T01:36:21;100272.56;;;19.65;42.17
74561;BME280;62979;55.720;37.606;2023-05-18T01:38:48;100276.78;;;19.70;42.40
74561;BME280;62979;55.720;37.606;2023-05-18T01:41:19;100262.44;;;19.56;42.39
74561;BME280;62979;55.720;37.606;2023-05-18T01:43:53;100276.91;;;19.66;42.27
74561;BME280;62979;55.720;37.606;2023-05-18T01:46:36;100272.56;;;19.65;42.56
74561;BME280;62979;55.720;37.606;2023-05-18T01:49:14;100282.41;;;19.63;42.55
74561;BME280;62979;55.720;37.606;2023-05-18T01:51:47;100279.75;;;19.63;42.30
74561;BME280;62979;55.720;37.606;2023-05-18T01:54:18;100275.69;;;19.56;42.48
74561;BME280;62979;55.720;37.606;2023-05-18T01:56:48;100279.97;;;19.59;42.55
74561;BME280;62979;55.720;37.606;2023-05-18T01:59:19;100279.56;;;19.66;42.48
74561;BME280;62979;55.720;37.606;2023-05-18T02:01:48;100287.59;;;19.65;42.54
74561;BME280;62979;55.720;37.606;2023-05-18T02:04:15;100285.13;;;19.62;42.43
74561;BME280;62979;55.720;37.606;2023-05-18T02:06:42;100283.19;;;19.65;42.23
74561;BME280;62979;55.720;37.606;2023-05-18T02:09:09;100283.97;;;19.67;41.98
74561;BME280;62979;55.720;37.606;2023-05-18T02:11:36;100277.63;;;19.70;42.03
74561;BME280;62979;55.720;37.606;2023-05-18T02:14:03;100274.91;;;19.72;41.95
74561;BME280;62979;55.720;37.606;2023-05-18T02:16:32;100282.81;;;19.73;42.19
74561;BME280;62979;55.720;37.606;2023-05-18T02:18:59;100286.25;;;19.75;41.92
74561;BME280;62979;55.720;37.606;2023-05-18T02:21:27;100286.91;;;19.79;41.54
74561;BME280;62979;55.720;37.606;2023-05-18T02:23:54;100290.19;;;19.84;41.39
74561;BME280;62979;55.720;37.606;2023-05-18T02:26:21;100295.50;;;19.84;41.75
74561;BME280;62979;55.720;37.606;2023-05-18T02:28:48;100292.75;;;19.85;41.85
74561;BME280;62979;55.720;37.606;2023-05-18T02:31:15;100272.44;;;19.69;41.87
74561;BME280;62979;55.720;37.606;2023-05-18T02:33:43;100292.84;;;19.84;42.02
74561;BME280;62979;55.720;37.606;2023-05-18T02:36:11;100284.88;;;19.84;42.01
74561;BME280;62979;55.720;37.606;2023-05-18T02:38:41;100281.53;;;19.80;41.73
74561;BME280;62979;55.720;37.606;2023-05-18T02:41:09;100283.69;;;19.89;41.97
74561;BME280;62979;55.720;37.606;2023-05-18T02:43:36;100293.13;;;19.95;41.70
74561;BME280;62979;55.720;37.606;2023-05-18T02:46:03;100298.34;;;19.97;41.16
74561;BME280;62979;55.720;37.606;2023-05-18T02:48:30;100290.22;;;20.00;41.41
74561;BME280;62979;55.720;37.606;2023-05-18T02:50:59;100290.72;;;20.06;41.45
74561;BME280;62979;55.720;37.606;2023-05-18T02:53:26;100296.81;;;20.08;41.02
74561;BME280;62979;55.720;37.606;2023-05-18T02:55:53;100296.50;;;20.15;40.31
74561;BME280;62979;55.720;37.606;2023-05-18T02:58:22;100297.97;;;20.20;40.71
74561;BME280;62979;55.720;37.606;2023-05-18T03:00:50;100292.47;;;20.23;41.14
74561;BME280;62979;55.720;37.606;2023-05-18T03:03:19;100274.13;;;20.19;40.88
74561;BME280;62979;55.720;37.606;2023-05-18T03:05:48;100288.72;;;20.27;40.92
74561;BME280;62979;55.720;37.606;2023-05-18T03:08:18;100285.81;;;20.32;40.69
74561;BME280;62979;55.720;37.606;2023-05-18T03:10:45;100285.63;;;20.35;40.42
74561;BME280;62979;55.720;37.606;2023-05-18T03:13:12;100282.91;;;20.37;40.53
74561;BME280;62979;55.720;37.606;2023-05-18T03:15:39;100289.41;;;20.47;40.24
74561;BME280;62979;55.720;37.606;2023-05-18T03:18:06;100296.09;;;20.54;40.63
74561;BME280;62979;55.720;37.606;2023-05-18T03:20:33;100295.09;;;20.57;40.10
74561;BME280;62979;55.720;37.606;2023-05-18T03:23:02;100302.81;;;20.61;40.24
74561;BME280;62979;55.720;37.606;2023-05-18T03:25:30;100297.22;;;20.66;39.85
74561;BME280;62979;55.720;37.606;2023-05-18T03:27:57;100294.56;;;20.66;39.57
74561;BME280;62979;55.720;37.606;2023-05-18T03:30:24;100290.19;;;20.65;39.53
74561;BME280;62979;55.720;37.606;2023-05-18T03:32:51;100298.59;;;20.73;39.21
74561;BME280;62979;55.720;37.606;2023-05-18T03:35:18;100302.00;;;20.75;39.73
74561;BME280;62979;55.720;37.606;2023-05-18T03:37:45;100302.34;;;20.85;39.44
74561;BME280;62979;55.720;37.606;2023-05-18T03:40:14;100305.50;;;20.91;39.60
74561;BME280;62979;55.720;37.606;2023-05-18T03:42:42;100299.00;;;20.97;39.26
74561;BME280;62979;55.720;37.606;2023-05-18T03:45:10;100299.00;;;20.97;39.41
74561;BME280;62979;55.720;37.606;2023-05-18T03:47:38;100301.09;;;21.06;39.71
74561;BME280;62979;55.720;37.606;2023-05-18T03:50:06;100310.44;;;21.13;40.01
74561;BME280;62979;55.720;37.606;2023-05-18T03:52:34;100301.34;;;21.17;40.20
74561;BME280;62979;55.720;37.606;2023-05-18T03:55:03;100307.25;;;21.23;39.87
74561;BME280;62979;55.720;37.606;2023-05-18T03:57:31;100312.63;;;21.21;39.33
74561;BME280;62979;55.720;37.606;2023-05-18T03:59:59;100309.63;;;21.27;39.06
74561;BME280;62979;55.720;37.606;2023-05-18T04:02:28;100301.19;;;21.35;39.13
74561;BME280;62979;55.720;37.606;2023-05-18T04:04:55;100301.00;;;21.38;38.58
74561;BME280;62979;55.720;37.606;2023-05-18T04:07:22;100308.13;;;21.37;37.97
74561;BME280;62979;55.720;37.606;2023-05-18T04:09:49;100292.72;;;21.28;38.49
74561;BME280;62979;55.720;37.606;2023-05-18T04:12:16;100313.22;;;21.42;38.51
74561;BME280;62979;55.720;37.606;2023-05-18T04:14:43;100316.19;;;21.52;38.33
74561;BME280;62979;55.720;37.606;2023-05-18T04:17:15;100291.84;;;21.44;38.02
74561;BME280;62979;55.720;37.606;2023-05-18T04:19:42;100313.63;;;21.65;38.10
74561;BME280;62979;55.720;37.606;2023-05-18T04:22:09;100311.94;;;21.64;37.45
74561;BME280;62979;55.720;37.606;2023-05-18T04:24:36;100319.44;;;21.71;38.05
74561;BME280;62979;55.720;37.606;2023-05-18T04:27:05;100315.53;;;21.77;38.27
74561;BME280;62979;55.720;37.606;2023-05-18T04:29:33;100313.16;;;21.72;38.11
74561;BME280;62979;55.720;37.606;2023-05-18T04:32:03;100316.03;;;21.84;38.18
74561;BME280;62979;55.720;37.606;2023-05-18T04:34:34;100312.03;;;21.91;37.71
74561;BME280;62979;55.720;37.606;2023-05-18T04:37:01;100312.03;;;21.91;38.18
74561;BME280;62979;55.720;37.606;2023-05-18T04:39:30;100309.75;;;21.99;38.00
74561;BME280;62979;55.720;37.606;2023-05-18T04:41:57;100315.34;;;22.09;37.82
74561;BME280;62979;55.720;37.606;2023-05-18T04:44:24;100313.09;;;22.17;37.96
74561;BME280;62979;55.720;37.606;2023-05-18T04:46:53;100291.50;;;22.07;37.52
74561;BME280;62979;55.720;37.606;2023-05-18T04:49:20;100306.34;;;22.26;37.01
74561;BME280;62979;55.720;37.606;2023-05-18T04:51:49;100304.22;;;22.31;36.98
74561;BME280;62979;55.720;37.606;2023-05-18T04:54:20;100291.47;;;22.36;36.70
74561;BME280;62979;55.720;37.606;2023-05-18T04:56:48;100299.59;;;22.34;36.74
74561;BME280;62979;55.720;37.606;2023-05-18T04:59:16;100297.94;;;22.46;37.10
74561;BME280;62979;55.720;37.606;2023-05-18T05:01:43;100303.63;;;22.54;36.45
74561;BME280;62979;55.720;37.606;2023-05-18T05:04:11;100301.59;;;22.58;36.28
74561;BME280;62979;55.720;37.606;2023-05-18T05:06:38;100305.59;;;22.65;35.74
74561;BME280;62979;55.720;37.606;2023-05-18T05:09:07;100305.50;;;22.67;36.32
74561;BME280;62979;55.720;37.606;2023-05-18T05:11:34;100305.75;;;22.76;35.39
74561;BME280;62979;55.720;37.606;2023-05-18T05:14:01;100298.72;;;22.75;35.06
74561;BME280;62979;55.720;37.606;2023-05-18T05:16:28;100304.31;;;22.85;35.18
74561;BME280;62979;55.720;37.606;2023-05-18T05:18:55;100304.09;;;22.88;34.68
74561;BME280;62979;55.720;37.606;2023-05-18T05:21:23;100300.38;;;22.91;34.03
74561;BME280;62979;55.720;37.606;2023-05-18T05:23:50;100304.56;;;22.95;33.75
74561;BME280;62979;55.720;37.606;2023-05-18T05:26:19;100298.06;;;22.99;34.26
74561;BME280;62979;55.720;37.606;2023-05-18T05:28:46;100304.63;;;23.07;33.51
74561;BME280;62979;55.720;37.606;2023-05-18T05:31:13;100306.84;;;23.14;33.08
74561;BME280;62979;55.720;37.606;2023-05-18T05:33:40;100293.75;;;23.23;32.24
74561;BME280;62979;55.720;37.606;2023-05-18T05:36:09;100301.13;;;23.20;31.92
74561;BME280;62979;55.720;37.606;2023-05-18T05:38:36;100300.06;;;23.22;31.33
74561;BME280;62979;55.720;37.606;2023-05-18T05:41:03;100292.16;;;23.21;30.86
74561;BME280;62979;55.720;37.606;2023-05-18T05:43:31;100299.75;;;23.27;30.01
74561;BME280;62979;55.720;37.606;2023-05-18T05:45:59;100294.63;;;23.24;30.78
74561;BME280;62979;55.720;37.606;2023-05-18T05:48:26;100295.91;;;23.31;30.73
74561;BME280;62979;55.720;37.606;2023-05-18T05:50:53;100289.63;;;23.32;30.44
74561;BME280;62979;55.720;37.606;2023-05-18T05:53:20;100295.50;;;23.37;30.42
74561;BME280;62979;55.720;37.606;2023-05-18T05:55:47;100295.28;;;23.40;30.33
74561;BME280;62979;55.720;37.606;2023-05-18T05:58:14;100277.44;;;23.28;30.36
74561;BME280;62979;55.720;37.606;2023-05-18T06:00:42;100285.22;;;23.31;29.71
74561;BME280;62979;55.720;37.606;2023-05-18T06:03:11;100290.56;;;23.31;29.10
74561;BME280;62979;55.720;37.606;2023-05-18T06:05:40;100287.16;;;23.29;29.36
74561;BME280;62979;55.720;37.606;2023-05-18T06:08:07;100284.28;;;23.32;29.52
74561;BME280;62979;55.720;37.606;2023-05-18T06:10:35;100289.31;;;23.37;29.03
74561;BME280;62979;55.720;37.606;2023-05-18T06:13:03;100292.97;;;23.48;29.92
74561;BME280;62979;55.720;37.606;2023-05-18T06:15:30;100287.09;;;23.56;29.39
74561;BME280;62979;55.720;37.606;2023-05-18T06:17:58;100289.44;;;23.61;29.38
74561;BME280;62979;55.720;37.606;2023-05-18T06:20:26;100288.25;;;23.65;28.75
74561;BME280;62979;55.720;37.606;2023-05-18T06:22:53;100289.97;;;23.66;29.09
74561;BME280;62979;55.720;37.606;2023-05-18T06:25:19;100288.16;;;23.66;29.16
74561;BME280;62979;55.720;37.606;2023-05-18T06:27:47;100296.63;;;23.73;29.16
74561;BME280;62979;55.720;37.606;2023-05-18T06:30:14;100291.81;;;23.78;28.82
74561;BME280;62979;55.720;37.606;2023-05-18T06:32:41;100283.81;;;23.78;28.92
74561;BME280;62979;55.720;37.606;2023-05-18T06:35:09;100296.50;;;23.87;28.42
74561;BME280;62979;55.720;37.606;2023-05-18T06:37:37;100289.75;;;23.95;28.04
74561;BME280;62979;55.720;37.606;2023-05-18T06:40:06;100288.06;;;23.93;28.07
74561;BME280;62979;55.720;37.606;2023-05-18T06:42:34;100279.50;;;24.01;28.41
74561;BME280;62979;55.720;37.606;2023-05-18T06:45:01;100293.38;;;24.06;28.58
74561;BME280;62979;55.720;37.606;2023-05-18T06:47:28;100287.94;;;24.08;27.87
74561;BME280;62979;55.720;37.606;2023-05-18T06:49:55;100289.44;;;24.12;27.97
74561;BME280;62979;55.720;37.606;2023-05-18T06:52:23;100289.63;;;24.09;27.83
74561;BME280;62979;55.720;37.606;2023-05-18T06:54:50;100287.41;;;24.03;27.62
74561;BME280;62979;55.720;37.606;2023-05-18T06:57:17;100289.31;;;24.13;28.14
74561;BME280;62979;55.720;37.606;2023-05-18T06:59:44;100288.56;;;24.24;27.81
74561;BME280;62979;55.720;37.606;2023-05-18T07:02:14;100305.44;;;24.25;27.41
74561;BME280;62979;55.720;37.606;2023-05-18T07:04:41;100302.56;;;24.15;26.74
74561;BME280;62979;55.720;37.606;2023-05-18T07:07:08;100293.38;;;24.19;27.63
74561;BME280;62979;55.720;37.606;2023-05-18T07:09:36;100288.41;;;24.26;27.36
74561;BME280;62979;55.720;37.606;2023-05-18T07:12:03;100296.19;;;24.42;27.57
74561;BME280;62979;55.720;37.606;2023-05-18T07:14:30;100292.44;;;24.44;26.95
74561;BME280;62979;55.720;37.606;2023-05-18T07:16:57;100286.25;;;24.44;27.06
74561;BME280;62979;55.720;37.606;2023-05-18T07:19:24;100288.06;;;24.56;26.86
74561;BME280;62979;55.720;37.606;2023-05-18T07:21:51;100287.06;;;24.57;26.65
74561;BME280;62979;55.720;37.606;2023-05-18T07:24:18;100297.53;;;24.60;26.96
74561;BME280;62979;55.720;37.606;2023-05-18T07:26:46;100292.50;;;24.68;26.94
74561;BME280;62979;55.720;37.606;2023-05-18T07:29:13;100292.16;;;24.73;26.97
74561;BME280;62979;55.720;37.606;2023-05-18T07:31:40;100301.53;;;24.78;26.33
74561;BME280;62979;55.720;37.606;2023-05-18T07:34:07;100301.78;;;24.75;25.62
74561;BME280;62979;55.720;37.606;2023-05-18T07:36:34;100294.50;;;24.77;26.03
74561;BME280;62979;55.720;37.606;2023-05-18T07:39:01;100300.06;;;24.74;26.31
74561;BME280;62979;55.720;37.606;2023-05-18T07:41:29;100293.19;;;24.83;26.17
74561;BME280;62979;55.720;37.606;2023-05-18T07:43:58;100294.09;;;24.95;26.42
74561;BME280;62979;55.720;37.606;2023-05-18T07:46:24;100290.69;;;25.04;26.05
74561;BME280;62979;55.720;37.606;2023-05-18T07:48:51;100291.44;;;25.06;25.62
74561;BME280;62979;55.720;37.606;2023-05-18T07:51:18;100293.50;;;25.03;25.28
74561;BME280;62979;55.720;37.606;2023-05-18T07:53:45;100288.91;;;25.16;26.15
74561;BME280;62979;55.720;37.606;2023-05-18T07:56:12;100296.78;;;25.30;26.17
74561;BME280;62979;55.720;37.606;2023-05-18T07:58:39;100290.00;;;25.37;25.84
74561;BME280;62979;55.720;37.606;2023-05-18T08:01:07;100288.09;;;25.51;26.16
74561;BME280;62979;55.720;37.606;2023-05-18T08:03:34;100290.38;;;25.55;25.32
74561;BME280;62979;55.720;37.606;2023-05-18T08:06:01;100293.94;;;25.67;25.42
74561;BME280;62979;55.720;37.606;2023-05-18T08:08:28;100291.88;;;25.82;25.20
74561;BME280;62979;55.720;37.606;2023-05-18T08:10:55;100296.25;;;25.72;24.14
74561;BME280;62979;55.720;37.606;2023-05-18T08:13:23;100285.41;;;25.62;24.43
74561;BME280;62979;55.720;37.606;2023-05-18T08:15:50;100291.16;;;25.69;24.49
74561;BME280;62979;55.720;37.606;2023-05-18T08:18:18;100283.91;;;25.93;24.82
74561;BME280;62979;55.720;37.606;2023-05-18T08:20:45;100297.16;;;26.17;24.47
74561;BME280;62979;55.720;37.606;2023-05-18T08:23:12;100295.09;;;26.32;24.19
74561;BME280;62979;55.720;37.606;2023-05-18T08:25:39;100288.72;;;26.44;23.44
74561;BME280;62979;55.720;37.606;2023-05-18T08:28:06;100282.66;;;26.54;23.46
74561;BME280;62979;55.720;37.606;2023-05-18T08:30:32;100278.34;;;26.51;23.54
74561;BME280;62979;55.720;37.606;2023-05-18T08:32:59;100286.91;;;26.56;23.42
74561;BME280;62979;55.720;37.606;2023-05-18T08:35:28;100285.56;;;26.39;23.58
74561;BME280;62979;55.720;37.606;2023-05-18T08:37:56;100281.78;;;26.42;23.75
74561;BME280;62979;55.720;37.606;2023-05-18T08:40:25;100278.47;;;26.61;23.71
74561;BME280;62979;55.720;37.606;2023-05-18T08:43:06;100274.63;;;26.75;23.55
74561;BME280;62979;55.720;37.606;2023-05-18T08:45:40;100285.13;;;26.78;22.72
74561;BME280;62979;55.720;37.606;2023-05-18T08:48:14;100281.00;;;26.74;21.77
74561;BME280;62979;55.720;37.606;2023-05-18T08:50:43;100267.56;;;26.74;21.89
74561;BME280;62979;55.720;37.606;2023-05-18T08:53:13;100268.72;;;26.92;22.52
74561;BME280;62979;55.720;37.606;2023-05-18T08:55:44;100259.97;;;27.11;22.11
74561;BME280;62979;55.720;37.606;2023-05-18T08:58:16;100267.06;;;27.12;21.64
74561;BME280;62979;55.720;37.606;2023-05-18T09:00:45;100280.19;;;27.26;22.22
74561;BME280;62979;55.720;37.606;2023-05-18T09:03:18;100266.78;;;27.15;22.46
74561;BME280;62979;55.720;37.606;2023-05-18T09:05:49;100255.44;;;27.11;22.34
74561;BME280;62979;55.720;37.606;2023-05-18T09:08:19;100272.63;;;27.20;22.15
74561;BME280;62979;55.720;37.606;2023-05-18T09:10:46;100270.97;;;27.08;22.29
74561;BME280;62979;55.720;37.606;2023-05-18T09:13:15;100261.94;;;26.77;22.24
74561;BME280;62979;55.720;37.606;2023-05-18T09:15:45;100250.78;;;26.93;22.34
74561;BME280;62979;55.720;37.606;2023-05-18T09:18:12;100246.28;;;26.61;22.88
74561;BME280;62979;55.720;37.606;2023-05-18T09:20:39;100207.06;;;26.37;23.39
74561;BME280;62979;55.720;37.606;2023-05-18T09:23:10;100252.28;;;26.85;23.34
74561;BME280;62979;55.720;37.606;2023-05-18T09:25:42;100260.56;;;27.15;22.30
74561;BME280;62979;55.720;37.606;2023-05-18T09:28:11;100226.59;;;27.25;22.13
74561;BME280;62979;55.720;37.606;2023-05-18T09:30:40;100262.22;;;27.48;22.11
74561;BME280;62979;55.720;37.606;2023-05-18T09:33:15;100254.13;;;27.69;21.79
74561;BME280;62979;55.720;37.606;2023-05-18T09:35:43;100251.63;;;27.77;21.46
74561;BME280;62979;55.720;37.606;2023-05-18T09:38:14;100243.34;;;27.59;21.76
74561;BME280;62979;55.720;37.606;2023-05-18T09:40:47;100240.19;;;27.54;21.60
74561;BME280;62979;55.720;37.606;2023-05-18T09:43:16;100253.69;;;27.43;22.02
74561;BME280;62979;55.720;37.606;2023-05-18T09:45:45;100253.47;;;27.46;21.86
74561;BME280;62979;55.720;37.606;2023-05-18T09:48:14;100243.06;;;27.62;21.90
74561;BME280;62979;55.720;37.606;2023-05-18T09:50:42;100218.97;;;27.51;22.07
74561;BME280;62979;55.720;37.606;2023-05-18T09:53:12;100243.47;;;27.58;22.00
74561;BME280;62979;55.720;37.606;2023-05-18T09:55:44;100252.72;;;27.44;22.38
74561;BME280;62979;55.720;37.606;2023-05-18T09:58:13;100228.16;;;27.27;22.44
74561;BME280;62979;55.720;37.606;2023-05-18T10:00:40;100237.50;;;27.54;22.12
74561;BME280;62979;55.720;37.606;2023-05-18T10:03:18;100235.47;;;28.48;20.85
74561;BME280;62979;55.720;37.606;2023-05-18T10:05:46;100230.75;;;29.38;20.02
74561;BME280;62979;55.720;37.606;2023-05-18T10:08:15;100241.88;;;30.10;18.93
74561;BME280;62979;55.720;37.606;2023-05-18T10:10:45;100232.53;;;30.67;18.85
74561;BME280;62979;55.720;37.606;2023-05-18T10:13:14;100230.03;;;31.28;17.77
74561;BME280;62979;55.720;37.606;2023-05-18T10:15:48;100229.00;;;31.47;18.25
74561;BME280;62979;55.720;37.606;2023-05-18T10:18:20;100236.97;;;31.48;18.02
74561;BME280;62979;55.720;37.606;2023-05-18T10:20:50;100233.94;;;31.33;17.67
74561;BME280;62979;55.720;37.606;2023-05-18T10:23:21;100223.31;;;31.32;18.04
74561;BME280;62979;55.720;37.606;2023-05-18T10:25:50;100232.31;;;30.79;18.43
74561;BME280;62979;55.720;37.606;2023-05-18T10:28:21;100223.94;;;30.46;18.65
74561;BME280;62979;55.720;37.606;2023-05-18T10:30:54;100231.28;;;29.98;19.18
74561;BME280;62979;55.720;37.606;2023-05-18T10:33:24;100224.53;;;30.40;19.02
74561;BME280;62979;55.720;37.606;2023-05-18T10:35:52;100219.91;;;31.30;18.34
74561;BME280;62979;55.720;37.606;2023-05-18T10:38:22;100219.25;;;31.54;17.73
74561;BME280;62979;55.720;37.606;2023-05-18T10:40:52;100213.19;;;31.60;18.33
74561;BME280;62979;55.720;37.606;2023-05-18T10:43:22;100212.81;;;31.29;18.12
74561;BME280;62979;55.720;37.606;2023-05-18T10:45:53;100215.81;;;31.78;17.93
74561;BME280;62979;55.720;37.606;2023-05-18T10:48:22;100221.44;;;32.35;17.08
74561;BME280;62979;55.720;37.606;2023-05-18T10:50:50;100219.50;;;32.03;17.03
74561;BME280;62979;55.720;37.606;2023-05-18T10:53:22;100208.25;;;31.55;17.46
74561;BME280;62979;55.720;37.606;2023-05-18T10:55:52;100214.84;;;31.09;18.41
74561;BME280;62979;55.720;37.606;2023-05-18T10:58:21;100211.13;;;30.66;18.56
74561;BME280;62979;55.720;37.606;2023-05-18T11:00:53;100207.25;;;30.33;19.08
74561;BME280;62979;55.720;37.606;2023-05-18T11:03:21;100209.25;;;30.03;19.53
74561;BME280;62979;55.720;37.606;2023-05-18T11:06:02;100206.94;;;30.36;18.90
74561;BME280;62979;55.720;37.606;2023-05-18T11:08:40;100196.50;;;31.12;18.30
74561;BME280;62979;55.720;37.606;2023-05-18T11:11:08;100194.91;;;31.88;17.38
74561;BME280;62979;55.720;37.606;2023-05-18T11:13:37;100185.38;;;32.18;17.24
74561;BME280;62979;55.720;37.606;2023-05-18T11:16:10;100203.53;;;32.42;16.91
74561;BME280;62979;55.720;37.606;2023-05-18T11:18:42;100187.03;;;31.69;17.46
74561;BME280;62979;55.720;37.606;2023-05-18T11:21:20;100196.88;;;31.18;17.94
74561;BME280;62979;55.720;37.606;2023-05-18T11:24:25;100184.88;;;30.76;17.79
74561;BME280;62979;55.720;37.606;2023-05-18T11:26:58;100183.28;;;31.62;17.83
74561;BME280;62979;55.720;37.606;2023-05-18T11:29:33;100179.16;;;32.34;16.99
74561;BME280;62979;55.720;37.606;2023-05-18T11:32:01;100192.59;;;33.10;16.82
74561;BME280;62979;55.720;37.606;2023-05-18T11:34:45;100192.75;;;34.20;15.79
74561;BME280;62979;55.720;37.606;2023-05-18T11:37:46;100187.09;;;34.61;15.15
74561;BME280;62979;55.720;37.606;2023-05-18T11:40:45;100187.81;;;34.23;15.57
74561;BME280;62979;55.720;37.606;2023-05-18T11:43:21;100173.78;;;35.04;15.05
74561;BME280;62979;55.720;37.606;2023-05-18T11:45:51;100183.19;;;35.46;14.56
74561;BME280;62979;55.720;37.606;2023-05-18T11:48:20;100190.25;;;35.40;14.69
74561;BME280;62979;55.720;37.606;2023-05-18T11:50:51;100181.25;;;35.40;14.53
74561;BME280;62979;55.720;37.606;2023-05-18T11:53:21;100174.75;;;35.55;15.13
74561;BME280;62979;55.720;37.606;2023-05-18T11:55:52;100172.28;;;36.05;14.00
74561;BME280;62979;55.720;37.606;2023-05-18T11:58:19;100171.69;;;36.25;14.17
74561;BME280;62979;55.720;37.606;2023-05-18T12:00:47;100172.41;;;36.76;13.69
74561;BME280;62979;55.720;37.606;2023-05-18T12:03:14;100174.56;;;37.09;13.72
74561;BME280;62979;55.720;37.606;2023-05-18T12:05:42;100167.69;;;37.48;13.96
74561;BME280;62979;55.720;37.606;2023-05-18T12:08:16;100166.19;;;37.87;13.25
74561;BME280;62979;55.720;37.606;2023-05-18T12:10:44;100175.69;;;38.46;12.57
74561;BME280;62979;55.720;37.606;2023-05-18T12:13:13;100170.84;;;38.74;12.03
74561;BME280;62979;55.720;37.606;2023-05-18T12:15:43;100179.13;;;37.30;12.78
74561;BME280;62979;55.720;37.606;2023-05-18T12:18:11;100177.69;;;37.34;12.86
74561;BME280;62979;55.720;37.606;2023-05-18T12:20:39;100173.22;;;36.55;13.30
74561;BME280;62979;55.720;37.606;2023-05-18T12:23:06;100156.31;;;35.51;14.45
74561;BME280;62979;55.720;37.606;2023-05-18T12:25:33;100170.75;;;35.36;14.86
74561;BME280;62979;55.720;37.606;2023-05-18T12:28:01;100172.16;;;35.77;14.60
74561;BME280;62979;55.720;37.606;2023-05-18T12:30:30;100159.31;;;36.43;14.26
74561;BME280;62979;55.720;37.606;2023-05-18T12:33:00;100153.44;;;37.18;14.36
74561;BME280;62979;55.720;37.606;2023-05-18T12:35:28;100161.91;;;37.64;13.46
74561;BME280;62979;55.720;37.606;2023-05-18T12:37:57;100153.78;;;37.36;13.59
74561;BME280;62979;55.720;37.606;2023-05-18T12:40:26;100162.72;;;38.06;14.21
74561;BME280;62979;55.720;37.606;2023-05-18T12:42:55;100136.94;;;38.36;13.26
74561;BME280;62979;55.720;37.606;2023-05-18T12:45:25;100155.22;;;38.22;13.71
74561;BME280;62979;55.720;37.606;2023-05-18T12:47:54;100158.34;;;38.19;13.83
74561;BME280;62979;55.720;37.606;2023-05-18T12:50:22;100161.25;;;38.04;13.05
74561;BME280;62979;55.720;37.606;2023-05-18T12:52:51;100157.59;;;38.45;13.42